sensor_id;sensor_type;location;lat;lon;timestamp;pressure;altitude;pressure_sealevel;temperature;humidity
63739;BME280;68816;45.558;10.070;2024-02-28T00:00:37;99518.72;;;10.93;100.00
63739;BME280;68816;45.558;10.070;2024-02-28T00:03:03;99521.88;;;10.85;100.00
63739;BME280;68816;45.558;10.070;2024-02-28T00:05:28;99519.03;;;10.63;100.00
63739;BME280;68816;45.558;10.070;2024-02-28T00:07:54;99512.25;;;10.71;100.00
63739;BME280;68816;45.558;10.070;2024-02-28T00:10:20;99510.41;;;10.60;100.00
63739;BME280;68816;45.558;10.070;2024-02-28T00:12:45;99518.25;;;10.68;100.00
63739;BME280;68816;45.558;10.070;2024-02-28T00:15:11;99518.94;;;10.75;100.00
63739;BME280;68816;45.558;10.070;2024-02-28T00:17:40;99514.16;;;10.70;100.00
63739;BME280;68816;45.558;10.070;2024-02-28T00:20:07;99517.25;;;10.74;100.00
63739;BME280;68816;45.558;10.070;2024-02-28T00:22:35;99519.78;;;10.76;100.00
63739;BME280;68816;45.558;10.070;2024-02-28T00:25:02;99525.06;;;10.77;100.00
63739;BME280;68816;45.558;10.070;2024-02-28T00:27:28;99534.53;;;10.64;100.00
63739;BME280;68816;45.558;10.070;2024-02-28T00:29:53;99528.56;;;10.73;100.00
63739;BME280;68816;45.558;10.070;2024-02-28T00:32:19;99518.78;;;10.82;100.00
63739;BME280;68816;45.558;10.070;2024-02-28T00:34:45;99520.63;;;10.76;100.00
63739;BME280;68816;45.558;10.070;2024-02-28T00:37:10;99530.31;;;10.62;100.00
63739;BME280;68816;45.558;10.070;2024-02-28T00:39:36;99540.34;;;10.51;100.00
63739;BME280;68816;45.558;10.070;2024-02-28T00:42:01;99538.19;;;10.53;100.00
63739;BME280;68816;45.558;10.070;2024-02-28T00:44:27;99544.91;;;10.57;100.00
63739;BME280;68816;45.558;10.070;2024-02-28T00:46:53;99552.03;;;10.53;100.00
63739;BME280;68816;45.558;10.070;2024-02-28T00:49:18;99571.50;;;10.47;100.00
63739;BME280;68816;45.558;10.070;2024-02-28T00:51:45;99572.00;;;10.44;100.00
63739;BME280;68816;45.558;10.070;2024-02-28T00:54:11;99566.47;;;10.44;100.00
63739;BME280;68816;45.558;10.070;2024-02-28T00:56:37;99569.75;;;10.41;100.00
63739;BME280;68816;45.558;10.070;2024-02-28T00:59:02;99567.22;;;10.39;100.00
63739;BME280;68816;45.558;10.070;2024-02-28T01:01:28;99578.72;;;10.48;100.00
63739;BME280;68816;45.558;10.070;2024-02-28T01:03:54;99571.41;;;10.42;100.00
63739;BME280;68816;45.558;10.070;2024-02-28T01:06:19;99562.81;;;10.26;100.00
63739;BME280;68816;45.558;10.070;2024-02-28T01:08:45;99571.56;;;10.35;100.00
63739;BME280;68816;45.558;10.070;2024-02-28T01:11:10;99575.84;;;10.43;100.00
63739;BME280;68816;45.558;10.070;2024-02-28T01:13:36;99573.19;;;10.48;100.00
63739;BME280;68816;45.558;10.070;2024-02-28T01:16:02;99574.28;;;10.47;100.00
63739;BME280;68816;45.558;10.070;2024-02-28T01:18:28;99574.84;;;10.49;100.00
63739;BME280;68816;45.558;10.070;2024-02-28T01:20:56;99572.69;;;10.51;100.00
63739;BME280;68816;45.558;10.070;2024-02-28T01:23:21;99569.94;;;10.51;100.00
63739;BME280;68816;45.558;10.070;2024-02-28T01:25:47;99566.38;;;10.39;100.00
63739;BME280;68816;45.558;10.070;2024-02-28T01:28:13;99576.53;;;10.50;100.00
63739;BME280;68816;45.558;10.070;2024-02-28T01:30:38;99568.69;;;10.58;100.00
63739;BME280;68816;45.558;10.070;2024-02-28T01:33:04;99571.69;;;10.57;100.00
63739;BME280;68816;45.558;10.070;2024-02-28T01:35:30;99574.22;;;10.58;100.00
63739;BME280;68816;45.558;10.070;2024-02-28T01:37:56;99572.03;;;10.60;100.00
63739;BME280;68816;45.558;10.070;2024-02-28T01:40:21;99570.72;;;10.63;100.00
63739;BME280;68816;45.558;10.070;2024-02-28T01:42:47;99564.66;;;10.66;100.00
63739;BME280;68816;45.558;10.070;2024-02-28T01:45:14;99567.19;;;10.67;100.00
63739;BME280;68816;45.558;10.070;2024-02-28T01:47:43;99571.97;;;10.72;100.00
63739;BME280;68816;45.558;10.070;2024-02-28T01:50:12;99567.56;;;10.71;100.00
63739;BME280;68816;45.558;10.070;2024-02-28T01:52:39;99572.25;;;10.70;100.00
63739;BME280;68816;45.558;10.070;2024-02-28T01:55:05;99580.63;;;10.76;100.00
63739;BME280;68816;45.558;10.070;2024-02-28T01:57:33;99573.56;;;10.68;100.00
63739;BME280;68816;45.558;10.070;2024-02-28T01:59:59;99581.38;;;10.71;100.00
63739;BME280;68816;45.558;10.070;2024-02-28T02:02:25;99571.41;;;10.70;100.00
63739;BME280;68816;45.558;10.070;2024-02-28T02:04:51;99572.56;;;10.74;100.00
63739;BME280;68816;45.558;10.070;2024-02-28T02:07:18;99572.56;;;10.74;100.00
63739;BME280;68816;45.558;10.070;2024-02-28T02:09:45;99578.94;;;10.75;100.00
63739;BME280;68816;45.558;10.070;2024-02-28T02:12:11;99579.78;;;10.75;100.00
63739;BME280;68816;45.558;10.070;2024-02-28T02:14:37;99580.38;;;10.77;100.00
63739;BME280;68816;45.558;10.070;2024-02-28T02:17:03;99583.72;;;10.79;100.00
63739;BME280;68816;45.558;10.070;2024-02-28T02:19:29;99582.31;;;10.77;100.00
63739;BME280;68816;45.558;10.070;2024-02-28T02:21:57;99582.47;;;10.70;100.00
63739;BME280;68816;45.558;10.070;2024-02-28T02:24:23;99589.16;;;10.74;100.00
63739;BME280;68816;45.558;10.070;2024-02-28T02:26:49;99582.63;;;10.63;100.00
63739;BME280;68816;45.558;10.070;2024-02-28T02:29:17;99591.84;;;10.69;100.00
63739;BME280;68816;45.558;10.070;2024-02-28T02:31:43;99590.41;;;10.66;100.00
63739;BME280;68816;45.558;10.070;2024-02-28T02:34:08;99586.13;;;10.59;100.00
63739;BME280;68816;45.558;10.070;2024-02-28T02:36:34;99591.84;;;10.69;100.00
63739;BME280;68816;45.558;10.070;2024-02-28T02:39:00;99596.38;;;10.75;100.00
63739;BME280;68816;45.558;10.070;2024-02-28T02:41:25;99599.16;;;10.75;100.00
63739;BME280;68816;45.558;10.070;2024-02-28T02:43:51;99592.44;;;10.71;100.00
63739;BME280;68816;45.558;10.070;2024-02-28T02:46:16;99586.56;;;10.67;100.00
63739;BME280;68816;45.558;10.070;2024-02-28T02:48:42;99590.00;;;10.75;100.00
63739;BME280;68816;45.558;10.070;2024-02-28T02:51:08;99597.69;;;10.73;100.00
63739;BME280;68816;45.558;10.070;2024-02-28T02:53:34;99606.28;;;10.71;100.00
63739;BME280;68816;45.558;10.070;2024-02-28T02:56:00;99603.84;;;10.75;100.00
63739;BME280;68816;45.558;10.070;2024-02-28T02:58:25;99605.38;;;10.54;100.00
63739;BME280;68816;45.558;10.070;2024-02-28T03:00:51;99609.19;;;10.64;100.00
63739;BME280;68816;45.558;10.070;2024-02-28T03:03:16;99612.28;;;10.68;100.00
63739;BME280;68816;45.558;10.070;2024-02-28T03:05:42;99608.44;;;10.69;100.00
63739;BME280;68816;45.558;10.070;2024-02-28T03:08:07;99606.66;;;10.63;100.00
63739;BME280;68816;45.558;10.070;2024-02-28T03:10:33;99604.72;;;10.63;100.00
63739;BME280;68816;45.558;10.070;2024-02-28T03:12:59;99612.56;;;10.55;100.00
63739;BME280;68816;45.558;10.070;2024-02-28T03:15:26;99605.38;;;10.54;100.00
63739;BME280;68816;45.558;10.070;2024-02-28T03:17:51;99614.09;;;10.62;100.00
63739;BME280;68816;45.558;10.070;2024-02-28T03:20:17;99611.44;;;10.67;100.00
63739;BME280;68816;45.558;10.070;2024-02-28T03:22:42;99625.03;;;10.69;100.00
63739;BME280;68816;45.558;10.070;2024-02-28T03:25:09;99627.28;;;10.44;100.00
63739;BME280;68816;45.558;10.070;2024-02-28T03:27:34;99631.69;;;10.16;100.00
63739;BME280;68816;45.558;10.070;2024-02-28T03:30:00;99636.59;;;10.03;100.00
63739;BME280;68816;45.558;10.070;2024-02-28T03:32:27;99642.50;;;10.06;100.00
63739;BME280;68816;45.558;10.070;2024-02-28T03:34:52;99646.69;;;10.09;100.00
63739;BME280;68816;45.558;10.070;2024-02-28T03:37:18;99645.84;;;10.08;100.00
63739;BME280;68816;45.558;10.070;2024-02-28T03:39:43;99645.84;;;10.08;100.00
63739;BME280;68816;45.558;10.070;2024-02-28T03:42:09;99648.03;;;10.06;100.00
63739;BME280;68816;45.558;10.070;2024-02-28T03:44:35;99652.69;;;10.06;100.00
63739;BME280;68816;45.558;10.070;2024-02-28T03:47:00;99660.63;;;10.02;100.00
63739;BME280;68816;45.558;10.070;2024-02-28T03:49:26;99649.94;;;10.06;100.00
63739;BME280;68816;45.558;10.070;2024-02-28T03:51:51;99663.63;;;10.12;100.00
63739;BME280;68816;45.558;10.070;2024-02-28T03:54:17;99663.03;;;10.22;100.00
63739;BME280;68816;45.558;10.070;2024-02-28T03:56:42;99663.25;;;10.20;100.00
63739;BME280;68816;45.558;10.070;2024-02-28T03:59:08;99662.53;;;10.25;100.00
63739;BME280;68816;45.558;10.070;2024-02-28T04:01:34;99665.91;;;10.27;100.00
63739;BME280;68816;45.558;10.070;2024-02-28T04:04:00;99671.19;;;10.28;100.00
63739;BME280;68816;45.558;10.070;2024-02-28T04:06:25;99677.16;;;10.37;100.00
63739;BME280;68816;45.558;10.070;2024-02-28T04:08:51;99684.28;;;10.33;100.00
63739;BME280;68816;45.558;10.070;2024-02-28T04:11:17;99681.97;;;10.42;100.00
63739;BME280;68816;45.558;10.070;2024-02-28T04:13:42;99688.47;;;10.36;100.00
63739;BME280;68816;45.558;10.070;2024-02-28T04:16:09;99685.59;;;10.42;100.00
63739;BME280;68816;45.558;10.070;2024-02-28T04:18:35;99686.91;;;10.40;100.00
63739;BME280;68816;45.558;10.070;2024-02-28T04:21:01;99690.28;;;10.42;100.00
63739;BME280;68816;45.558;10.070;2024-02-28T04:23:26;99689.16;;;10.43;100.00
63739;BME280;68816;45.558;10.070;2024-02-28T04:25:52;99700.34;;;10.48;100.00
63739;BME280;68816;45.558;10.070;2024-02-28T04:28:17;99715.97;;;10.54;100.00
63739;BME280;68816;45.558;10.070;2024-02-28T04:30:43;99704.41;;;10.57;100.00
63739;BME280;68816;45.558;10.070;2024-02-28T04:33:09;99715.47;;;10.57;100.00
63739;BME280;68816;45.558;10.070;2024-02-28T04:35:35;99718.34;;;10.62;100.00
63739;BME280;68816;45.558;10.070;2024-02-28T04:38:00;99714.34;;;10.69;100.00
63739;BME280;68816;45.558;10.070;2024-02-28T04:40:26;99721.56;;;10.70;100.00
63739;BME280;68816;45.558;10.070;2024-02-28T04:42:52;99715.53;;;10.74;100.00
63739;BME280;68816;45.558;10.070;2024-02-28T04:45:17;99726.97;;;10.77;100.00
63739;BME280;68816;45.558;10.070;2024-02-28T04:47:43;99727.44;;;10.74;100.00
63739;BME280;68816;45.558;10.070;2024-02-28T04:50:10;99724.66;;;10.74;100.00
63739;BME280;68816;45.558;10.070;2024-02-28T04:52:35;99729.13;;;10.75;100.00
63739;BME280;68816;45.558;10.070;2024-02-28T04:55:01;99727.44;;;10.74;100.00
63739;BME280;68816;45.558;10.070;2024-02-28T04:57:27;99733.47;;;10.71;100.00
63739;BME280;68816;45.558;10.070;2024-02-28T04:59:53;99728.63;;;10.78;100.00
63739;BME280;68816;45.558;10.070;2024-02-28T05:02:19;99732.97;;;10.74;100.00
63739;BME280;68816;45.558;10.070;2024-02-28T05:04:47;99734.56;;;10.70;100.00
63739;BME280;68816;45.558;10.070;2024-02-28T05:07:12;99730.81;;;10.76;100.00
63739;BME280;68816;45.558;10.070;2024-02-28T05:09:38;99738.50;;;10.74;100.00
63739;BME280;68816;45.558;10.070;2024-02-28T05:12:04;99739.34;;;10.75;100.00
63739;BME280;68816;45.558;10.070;2024-02-28T05:14:29;99738.50;;;10.74;100.00
63739;BME280;68816;45.558;10.070;2024-02-28T05:16:55;99741.50;;;10.73;100.00
63739;BME280;68816;45.558;10.070;2024-02-28T05:19:21;99739.47;;;10.68;100.00
63739;BME280;68816;45.558;10.070;2024-02-28T05:21:46;99747.16;;;10.66;100.00
63739;BME280;68816;45.558;10.070;2024-02-28T05:24:13;99746.94;;;10.67;100.00
63739;BME280;68816;45.558;10.070;2024-02-28T05:26:39;99747.16;;;10.66;100.00
63739;BME280;68816;45.558;10.070;2024-02-28T05:29:05;99754.75;;;10.70;100.00
63739;BME280;68816;45.558;10.070;2024-02-28T05:31:31;99756.06;;;10.68;100.00
63739;BME280;68816;45.558;10.070;2024-02-28T05:33:58;99761.50;;;10.63;100.00
63739;BME280;68816;45.558;10.070;2024-02-28T05:36:25;99764.25;;;10.63;100.00
63739;BME280;68816;45.558;10.070;2024-02-28T05:38:52;99764.03;;;10.53;100.00
63739;BME280;68816;45.558;10.070;2024-02-28T05:41:18;99760.03;;;10.60;100.00
63739;BME280;68816;45.558;10.070;2024-02-28T05:43:44;99762.69;;;10.55;100.00
63739;BME280;68816;45.558;10.070;2024-02-28T05:46:10;99779.28;;;10.67;100.00
63739;BME280;68816;45.558;10.070;2024-02-28T05:48:36;99777.00;;;10.64;100.00
63739;BME280;68816;45.558;10.070;2024-02-28T05:51:01;99774.59;;;10.67;100.00
63739;BME280;68816;45.558;10.070;2024-02-28T05:53:28;99772.31;;;10.64;100.00
63739;BME280;68816;45.558;10.070;2024-02-28T05:55:58;99777.34;;;10.67;100.00
63739;BME280;68816;45.558;10.070;2024-02-28T05:58:23;99782.91;;;10.56;100.00
63739;BME280;68816;45.558;10.070;2024-02-28T06:00:51;99787.22;;;10.63;100.00
63739;BME280;68816;45.558;10.070;2024-02-28T06:03:17;99799.47;;;10.67;100.00
63739;BME280;68816;45.558;10.070;2024-02-28T06:05:42;99795.97;;;10.72;100.00
63739;BME280;68816;45.558;10.070;2024-02-28T06:08:08;99813.28;;;10.67;100.00
63739;BME280;68816;45.558;10.070;2024-02-28T06:10:34;99809.34;;;10.63;100.00
63739;BME280;68816;45.558;10.070;2024-02-28T06:13:00;99806.69;;;10.68;100.00
63739;BME280;68816;45.558;10.070;2024-02-28T06:15:26;99808.59;;;10.68;100.00
63739;BME280;68816;45.558;10.070;2024-02-28T06:17:51;99806.91;;;10.67;100.00
63739;BME280;68816;45.558;10.070;2024-02-28T06:20:17;99814.75;;;10.70;100.00
63739;BME280;68816;45.558;10.070;2024-02-28T06:22:43;99821.97;;;10.71;100.00
63739;BME280;68816;45.558;10.070;2024-02-28T06:25:09;99821.34;;;10.69;100.00
63739;BME280;68816;45.558;10.070;2024-02-28T06:27:44;99818.59;;;10.69;100.00
63739;BME280;68816;45.558;10.070;2024-02-28T06:30:11;99831.91;;;10.72;100.00
63739;BME280;68816;45.558;10.070;2024-02-28T06:32:38;99823.03;;;10.70;100.00
63739;BME280;68816;45.558;10.070;2024-02-28T06:35:04;99825.69;;;10.65;100.00
63739;BME280;68816;45.558;10.070;2024-02-28T06:37:30;99832.41;;;10.69;100.00
63739;BME280;68816;45.558;10.070;2024-02-28T06:39:56;99842.41;;;10.70;100.00
63739;BME280;68816;45.558;10.070;2024-02-28T06:42:21;99841.78;;;10.68;100.00
63739;BME280;68816;45.558;10.070;2024-02-28T06:44:47;99848.28;;;10.62;100.00
63739;BME280;68816;45.558;10.070;2024-02-28T06:47:13;99853.09;;;10.66;100.00
63739;BME280;68816;45.558;10.070;2024-02-28T06:49:38;99859.00;;;10.70;100.00
63739;BME280;68816;45.558;10.070;2024-02-28T06:52:04;99862.00;;;10.68;100.00
63739;BME280;68816;45.558;10.070;2024-02-28T06:54:30;99867.06;;;10.72;100.00
63739;BME280;68816;45.558;10.070;2024-02-28T06:56:57;99867.28;;;10.70;100.00
63739;BME280;68816;45.558;10.070;2024-02-28T06:59:23;99865.00;;;10.67;100.00
63739;BME280;68816;45.558;10.070;2024-02-28T07:01:48;99868.59;;;10.67;100.00
63739;BME280;68816;45.558;10.070;2024-02-28T07:04:14;99869.31;;;10.75;100.00
63739;BME280;68816;45.558;10.070;2024-02-28T07:06:40;99864.16;;;10.66;100.00
63739;BME280;68816;45.558;10.070;2024-02-28T07:09:08;99863.69;;;10.69;100.00
63739;BME280;68816;45.558;10.070;2024-02-28T07:11:35;99863.44;;;10.71;100.00
63739;BME280;68816;45.558;10.070;2024-02-28T07:14:01;99866.31;;;10.76;100.00
63739;BME280;68816;45.558;10.070;2024-02-28T07:16:30;99869.66;;;10.78;100.00
63739;BME280;68816;45.558;10.070;2024-02-28T07:18:56;99877.84;;;10.85;100.00
63739;BME280;68816;45.558;10.070;2024-02-28T07:21:22;99883.16;;;10.86;100.00
63739;BME280;68816;45.558;10.070;2024-02-28T07:23:47;99882.91;;;10.88;100.00
63739;BME280;68816;45.558;10.070;2024-02-28T07:26:16;99885.06;;;10.86;100.00
63739;BME280;68816;45.558;10.070;2024-02-28T07:28:42;99884.94;;;10.92;100.00
63739;BME280;68816;45.558;10.070;2024-02-28T07:31:15;99890.25;;;10.94;100.00
63739;BME280;68816;45.558;10.070;2024-02-28T07:33:41;99888.53;;;11.04;100.00
63739;BME280;68816;45.558;10.070;2024-02-28T07:36:07;99889.72;;;11.08;100.00
63739;BME280;68816;45.558;10.070;2024-02-28T07:38:32;99890.81;;;11.07;100.00
63739;BME280;68816;45.558;10.070;2024-02-28T07:40:58;99896.81;;;11.16;100.00
63739;BME280;68816;45.558;10.070;2024-02-28T07:43:24;99894.03;;;11.28;100.00
63739;BME280;68816;45.558;10.070;2024-02-28T07:45:50;99898.59;;;11.34;100.00
63739;BME280;68816;45.558;10.070;2024-02-28T07:48:15;99901.78;;;11.42;100.00
63739;BME280;68816;45.558;10.070;2024-02-28T07:50:44;99904.03;;;11.57;100.00
63739;BME280;68816;45.558;10.070;2024-02-28T07:53:10;99908.69;;;11.68;100.00
63739;BME280;68816;45.558;10.070;2024-02-28T07:55:35;99916.25;;;11.73;100.00
63739;BME280;68816;45.558;10.070;2024-02-28T07:58:01;99915.91;;;11.81;100.00
63739;BME280;68816;45.558;10.070;2024-02-28T08:00:27;99922.97;;;11.88;100.00
63739;BME280;68816;45.558;10.070;2024-02-28T08:02:52;99924.03;;;11.99;100.00
63739;BME280;68816;45.558;10.070;2024-02-28T08:05:18;99930.59;;;12.10;100.00
63739;BME280;68816;45.558;10.070;2024-02-28T08:07:43;99930.69;;;12.15;100.00
63739;BME280;68816;45.558;10.070;2024-02-28T08:10:09;99933.88;;;12.23;100.00
63739;BME280;68816;45.558;10.070;2024-02-28T08:12:36;99934.63;;;12.19;100.00
63739;BME280;68816;45.558;10.070;2024-02-28T08:15:03;99931.63;;;12.37;100.00
63739;BME280;68816;45.558;10.070;2024-02-28T08:17:28;99938.34;;;12.41;100.00
63739;BME280;68816;45.558;10.070;2024-02-28T08:19:54;99939.56;;;12.45;100.00
63739;BME280;68816;45.558;10.070;2024-02-28T08:22:20;99944.56;;;12.48;100.00
63739;BME280;68816;45.558;10.070;2024-02-28T08:24:46;99931.47;;;12.60;100.00
63739;BME280;68816;45.558;10.070;2024-02-28T08:27:11;99928.84;;;12.70;100.00
63739;BME280;68816;45.558;10.070;2024-02-28T08:29:40;99946.09;;;12.72;100.00
63739;BME280;68816;45.558;10.070;2024-02-28T08:32:10;99942.72;;;12.87;100.00
63739;BME280;68816;45.558;10.070;2024-02-28T08:34:36;99950.63;;;12.95;100.00
63739;BME280;68816;45.558;10.070;2024-02-28T08:37:01;99955.69;;;13.15;100.00
63739;BME280;68816;45.558;10.070;2024-02-28T08:39:27;99956.66;;;13.26;100.00
63739;BME280;68816;45.558;10.070;2024-02-28T08:41:53;99956.81;;;13.36;100.00
63739;BME280;68816;45.558;10.070;2024-02-28T08:44:19;99963.94;;;13.48;100.00
63739;BME280;68816;45.558;10.070;2024-02-28T08:46:49;99964.53;;;13.50;100.00
63739;BME280;68816;45.558;10.070;2024-02-28T08:49:15;99969.03;;;13.56;100.00
63739;BME280;68816;45.558;10.070;2024-02-28T08:51:42;99961.34;;;13.64;100.00
63739;BME280;68816;45.558;10.070;2024-02-28T08:54:08;99965.03;;;13.69;100.00
63739;BME280;68816;45.558;10.070;2024-02-28T08:56:34;99968.91;;;13.68;100.00
63739;BME280;68816;45.558;10.070;2024-02-28T08:59:00;99971.16;;;13.71;100.00
63739;BME280;68816;45.558;10.070;2024-02-28T09:01:26;99961.22;;;13.53;100.00
63739;BME280;68816;45.558;10.070;2024-02-28T09:03:52;99970.25;;;13.66;100.00
63739;BME280;68816;45.558;10.070;2024-02-28T09:06:17;99974.13;;;13.65;100.00
63739;BME280;68816;45.558;10.070;2024-02-28T09:08:43;99974.78;;;13.72;100.00
63739;BME280;68816;45.558;10.070;2024-02-28T09:11:09;99979.81;;;13.75;100.00
63739;BME280;68816;45.558;10.070;2024-02-28T09:13:35;99984.03;;;13.55;100.00
63739;BME280;68816;45.558;10.070;2024-02-28T09:16:03;99989.13;;;13.64;100.00
63739;BME280;68816;45.558;10.070;2024-02-28T09:18:29;99989.84;;;13.76;100.00
63739;BME280;68816;45.558;10.070;2024-02-28T09:20:54;99982.16;;;13.83;100.00
63739;BME280;68816;45.558;10.070;2024-02-28T09:23:20;99989.75;;;13.92;100.00
63739;BME280;68816;45.558;10.070;2024-02-28T09:25:46;99987.88;;;13.98;100.00
63739;BME280;68816;45.558;10.070;2024-02-28T09:28:12;99989.31;;;14.01;100.00
63739;BME280;68816;45.558;10.070;2024-02-28T09:30:41;99985.25;;;14.08;100.00
63739;BME280;68816;45.558;10.070;2024-02-28T09:33:08;99984.53;;;13.96;100.00
63739;BME280;68816;45.558;10.070;2024-02-28T09:35:35;99992.41;;;14.04;100.00
63739;BME280;68816;45.558;10.070;2024-02-28T09:38:02;99996.41;;;14.13;100.00
63739;BME280;68816;45.558;10.070;2024-02-28T09:40:28;100001.78;;;13.98;100.00
63739;BME280;68816;45.558;10.070;2024-02-28T09:43:00;99999.16;;;14.08;100.00
63739;BME280;68816;45.558;10.070;2024-02-28T09:45:27;99987.34;;;13.74;100.00
63739;BME280;68816;45.558;10.070;2024-02-28T09:47:56;99998.13;;;13.71;100.00
63739;BME280;68816;45.558;10.070;2024-02-28T09:50:22;100002.81;;;13.70;100.00
63739;BME280;68816;45.558;10.070;2024-02-28T09:52:49;100002.81;;;13.70;100.00
63739;BME280;68816;45.558;10.070;2024-02-28T09:55:14;100006.38;;;13.66;100.00
63739;BME280;68816;45.558;10.070;2024-02-28T09:57:41;100014.91;;;13.81;100.00
63739;BME280;68816;45.558;10.070;2024-02-28T10:00:09;100013.56;;;13.83;100.00
63739;BME280;68816;45.558;10.070;2024-02-28T10:02:37;100005.59;;;13.70;100.00
63739;BME280;68816;45.558;10.070;2024-02-28T10:05:05;100004.81;;;13.75;100.00
63739;BME280;68816;45.558;10.070;2024-02-28T10:07:32;100012.22;;;13.86;100.00
63739;BME280;68816;45.558;10.070;2024-02-28T10:09:57;100019.13;;;13.83;100.00
63739;BME280;68816;45.558;10.070;2024-02-28T10:12:24;100019.72;;;13.85;100.00
63739;BME280;68816;45.558;10.070;2024-02-28T10:14:50;100021.53;;;13.96;100.00
63739;BME280;68816;45.558;10.070;2024-02-28T10:17:18;100009.75;;;14.11;100.00
63739;BME280;68816;45.558;10.070;2024-02-28T10:19:44;100025.56;;;14.11;99.78
63739;BME280;68816;45.558;10.070;2024-02-28T10:22:10;100018.13;;;14.16;100.00
63739;BME280;68816;45.558;10.070;2024-02-28T10:24:35;100012.44;;;14.28;98.99
63739;BME280;68816;45.558;10.070;2024-02-28T10:27:03;100017.41;;;14.48;97.35
63739;BME280;68816;45.558;10.070;2024-02-28T10:29:29;100023.72;;;14.38;97.63
63739;BME280;68816;45.558;10.070;2024-02-28T10:31:58;100013.59;;;14.54;94.47
63739;BME280;68816;45.558;10.070;2024-02-28T10:34:25;100019.03;;;14.70;93.24
63739;BME280;68816;45.558;10.070;2024-02-28T10:36:51;100023.66;;;14.92;91.65
63739;BME280;68816;45.558;10.070;2024-02-28T10:39:17;100018.53;;;15.10;90.31
63739;BME280;68816;45.558;10.070;2024-02-28T10:41:46;100035.31;;;15.20;91.02
63739;BME280;68816;45.558;10.070;2024-02-28T10:44:14;100030.06;;;15.24;91.96
63739;BME280;68816;45.558;10.070;2024-02-28T10:46:42;100045.09;;;15.23;93.04
63739;BME280;68816;45.558;10.070;2024-02-28T10:49:09;100046.53;;;15.26;94.72
63739;BME280;68816;45.558;10.070;2024-02-28T10:51:36;100046.47;;;15.20;93.11
63739;BME280;68816;45.558;10.070;2024-02-28T10:54:11;100043.19;;;15.29;92.87
63739;BME280;68816;45.558;10.070;2024-02-28T10:56:38;100035.41;;;15.31;92.91
63739;BME280;68816;45.558;10.070;2024-02-28T10:59:09;100034.34;;;15.37;91.75
63739;BME280;68816;45.558;10.070;2024-02-28T11:01:40;100040.41;;;15.29;91.22
63739;BME280;68816;45.558;10.070;2024-02-28T11:04:10;100036.78;;;15.65;88.52
63739;BME280;68816;45.558;10.070;2024-02-28T11:06:56;100034.22;;;16.11;84.71
63739;BME280;68816;45.558;10.070;2024-02-28T11:09:25;100033.75;;;16.29;81.90
63739;BME280;68816;45.558;10.070;2024-02-28T11:11:52;100043.31;;;16.53;78.58
63739;BME280;68816;45.558;10.070;2024-02-28T11:14:18;100034.94;;;16.58;79.42
63739;BME280;68816;45.558;10.070;2024-02-28T11:17:09;100040.03;;;17.02;75.33
63739;BME280;68816;45.558;10.070;2024-02-28T11:19:36;100038.94;;;17.23;75.58
63739;BME280;68816;45.558;10.070;2024-02-28T11:22:02;100045.91;;;16.95;73.08
63739;BME280;68816;45.558;10.070;2024-02-28T11:24:32;100042.56;;;17.34;70.84
63739;BME280;68816;45.558;10.070;2024-02-28T11:26:58;100034.47;;;17.27;70.43
63739;BME280;68816;45.558;10.070;2024-02-28T11:29:25;100039.91;;;18.03;70.41
63739;BME280;68816;45.558;10.070;2024-02-28T11:31:51;100031.63;;;18.42;68.16
63739;BME280;68816;45.558;10.070;2024-02-28T11:34:18;100034.75;;;18.84;62.51
63739;BME280;68816;45.558;10.070;2024-02-28T11:36:47;100026.97;;;19.15;60.27
63739;BME280;68816;45.558;10.070;2024-02-28T11:39:13;100023.03;;;20.22;58.91
63739;BME280;68816;45.558;10.070;2024-02-28T11:41:39;100011.94;;;20.91;55.17
63739;BME280;68816;45.558;10.070;2024-02-28T11:44:05;100011.50;;;20.84;56.38
63739;BME280;68816;45.558;10.070;2024-02-28T11:46:31;100013.09;;;20.72;54.89
63739;BME280;68816;45.558;10.070;2024-02-28T11:51:24;100001.09;;;21.36;54.39
63739;BME280;68816;45.558;10.070;2024-02-28T11:53:50;99999.81;;;19.92;57.90
63739;BME280;68816;45.558;10.070;2024-02-28T11:56:16;100001.47;;;19.41;60.41
63739;BME280;68816;45.558;10.070;2024-02-28T11:58:50;100006.72;;;19.18;63.25
63739;BME280;68816;45.558;10.070;2024-02-28T12:01:16;100005.66;;;20.43;59.84
63739;BME280;68816;45.558;10.070;2024-02-28T12:03:45;100002.59;;;20.40;57.38
63739;BME280;68816;45.558;10.070;2024-02-28T12:06:14;100012.34;;;19.18;60.56
63739;BME280;68816;45.558;10.070;2024-02-28T12:08:39;100012.28;;;19.23;59.37
63739;BME280;68816;45.558;10.070;2024-02-28T12:11:08;100004.13;;;20.88;56.25
63739;BME280;68816;45.558;10.070;2024-02-28T12:13:37;100001.56;;;21.57;53.96
63739;BME280;68816;45.558;10.070;2024-02-28T12:16:03;100006.38;;;21.70;51.81
63739;BME280;68816;45.558;10.070;2024-02-28T12:18:29;100006.47;;;21.79;52.32
63739;BME280;68816;45.558;10.070;2024-02-28T12:20:55;100003.88;;;21.68;53.20
63739;BME280;68816;45.558;10.070;2024-02-28T12:23:21;100000.13;;;21.27;54.01
63739;BME280;68816;45.558;10.070;2024-02-28T12:25:47;100004.00;;;21.31;53.97
63739;BME280;68816;45.558;10.070;2024-02-28T12:28:13;100010.25;;;20.10;56.62
63739;BME280;68816;45.558;10.070;2024-02-28T12:30:43;100003.34;;;20.45;56.16
63739;BME280;68816;45.558;10.070;2024-02-28T12:33:13;100010.97;;;19.45;58.35
63739;BME280;68816;45.558;10.070;2024-02-28T12:35:39;100019.41;;;19.97;58.94
63739;BME280;68816;45.558;10.070;2024-02-28T12:38:04;100013.81;;;19.68;59.71